createdAt,value
2023-01-20T00:01:00.661Z,95051.63
2023-01-20T00:02:02.537Z,95054.00
2023-01-20T00:03:04.437Z,95058.59
2023-01-20T00:04:06.655Z,95054.53
2023-01-20T00:05:08.688Z,95054.53
2023-01-20T00:06:10.264Z,95047.56
2023-01-20T00:07:11.942Z,95054.75
2023-01-20T00:08:13.520Z,95057.97
2023-01-20T00:09:17.047Z,95061.97
2023-01-20T00:10:18.684Z,95059.03
2023-01-20T00:11:20.852Z,95058.25
2023-01-20T00:12:22.513Z,95056.06
2023-01-20T00:13:24.336Z,95050.16
2023-01-20T00:14:27.740Z,95061.50
2023-01-20T00:15:29.362Z,95067.69
2023-01-20T00:16:32.096Z,95065.81
2023-01-20T00:17:33.837Z,95069.28
2023-01-20T00:18:35.717Z,95063.66
2023-01-20T00:19:37.318Z,95066.66
2023-01-20T00:20:38.896Z,95067.19
2023-01-20T00:21:41.253Z,95072.53
2023-01-20T00:22:42.880Z,95070.94
2023-01-20T00:23:45.553Z,95064.78
2023-01-20T00:24:47.030Z,95067.72
2023-01-20T00:25:48.606Z,95073.06
2023-01-20T00:26:50.356Z,95073.34
2023-01-20T00:27:55.290Z,95065.59
2023-01-20T00:28:57.832Z,95069.31
2023-01-20T00:29:59.514Z,95061.81
2023-01-20T00:31:15.226Z,95078.13
2023-01-20T00:32:16.861Z,95074.38
2023-01-20T00:33:18.442Z,95071.66
2023-01-20T00:34:20.210Z,95077.06
2023-01-20T00:35:21.929Z,95079.44
2023-01-20T00:36:24.576Z,95079.66
2023-01-20T00:37:26.103Z,95080.25
2023-01-20T00:38:27.764Z,95086.69
2023-01-20T00:39:29.401Z,95075.41
2023-01-20T00:40:31.017Z,95075.50
2023-01-20T00:41:32.710Z,95081.94
2023-01-20T00:42:34.316Z,95082.19
2023-01-20T00:43:36.388Z,95081.38
2023-01-20T00:44:37.964Z,95090.81
2023-01-20T00:45:40.948Z,95081.38
2023-01-20T00:46:42.847Z,95082.22
2023-01-20T00:47:44.512Z,95086.25
2023-01-20T00:48:46.099Z,95088.91
2023-01-20T00:49:48.202Z,95084.38
2023-01-20T00:50:49.840Z,95086.78
2023-01-20T00:51:51.500Z,95096.97
2023-01-20T00:52:53.083Z,95091.59
2023-01-20T00:53:54.761Z,95096.44
2023-01-20T00:54:56.352Z,95091.31
2023-01-20T00:55:58.050Z,95091.59
2023-01-20T00:56:59.707Z,95092.41
2023-01-20T00:58:01.355Z,95094.78
2023-01-20T00:59:02.996Z,95083.56
2023-01-20T01:00:05.251Z,95089.97
2023-01-20T01:01:06.969Z,95095.91
2023-01-20T01:02:08.678Z,95094.00
2023-01-20T01:03:10.593Z,95104.72
2023-01-20T01:04:12.227Z,95096.41
2023-01-20T01:05:14.211Z,95099.13
2023-01-20T01:06:17.836Z,95103.66
2023-01-20T01:07:20.118Z,95100.44
2023-01-20T01:08:21.731Z,95103.91
2023-01-20T01:09:23.388Z,95105.28
2023-01-20T01:10:25.064Z,95101.75
2023-01-20T01:11:26.720Z,95106.06
2023-01-20T01:12:28.526Z,95107.13
2023-01-20T01:13:30.142Z,95111.41
2023-01-20T01:14:32.393Z,95113.50
2023-01-20T01:15:34.204Z,95112.66
2023-01-20T01:16:36.226Z,95108.66
2023-01-20T01:17:37.956Z,95112.44
2023-01-20T01:18:40.426Z,95114.56
2023-01-20T01:19:42.068Z,95117.25
2023-01-20T01:20:44.811Z,95107.84
2023-01-20T01:21:46.493Z,95115.56
2023-01-20T01:22:48.166Z,95105.16
2023-01-20T01:23:51.833Z,95117.38
2023-01-20T01:24:53.435Z,95118.25
2023-01-20T01:25:54.993Z,95113.69
2023-01-20T01:26:56.610Z,95112.41
2023-01-20T01:27:58.171Z,95115.88
2023-01-20T01:28:59.758Z,95114.78
2023-01-20T01:30:01.415Z,95118.84
2023-01-20T01:31:04.134Z,95120.97
2023-01-20T01:32:06.274Z,95119.94
2023-01-20T01:33:07.941Z,95115.88
2023-01-20T01:34:09.512Z,95120.41
2023-01-20T01:35:11.148Z,95126.59
2023-01-20T01:36:14.655Z,95130.66
2023-01-20T01:37:16.248Z,95131.22
2023-01-20T01:38:17.856Z,95127.22
2023-01-20T01:39:19.492Z,95130.69
2023-01-20T01:40:21.142Z,95131.22
2023-01-20T01:41:22.781Z,95121.59
2023-01-20T01:42:25.957Z,95124.28
2023-01-20T01:43:29.094Z,95129.13
2023-01-20T01:44:31.853Z,95132.09
2023-01-20T01:45:33.572Z,95129.94
2023-01-20T01:46:35.616Z,95127.78
2023-01-20T01:47:40.527Z,95125.59
2023-01-20T01:48:45.905Z,95124.53
2023-01-20T01:49:48.137Z,95118.91
2023-01-20T01:51:03.073Z,95129.84
2023-01-20T01:52:10.912Z,95125.56
2023-01-20T01:53:14.254Z,95125.34
2023-01-20T01:54:18.954Z,95114.38
2023-01-20T01:55:23.920Z,95126.94
2023-01-20T01:56:26.425Z,95120.00
2023-01-20T01:57:29.235Z,95120.03
2023-01-20T01:58:36.213Z,95131.25
2023-01-20T01:59:38.737Z,95126.09
2023-01-20T02:00:40.509Z,95125.03
2023-01-20T02:01:46.935Z,95126.91
2023-01-20T02:02:48.795Z,95112.06
2023-01-20T02:03:53.230Z,95120.41
2023-01-20T02:04:54.799Z,95127.66
2023-01-20T02:05:57.140Z,95123.66
2023-01-20T02:07:03.683Z,95122.28
2023-01-20T02:08:07.674Z,95125.84
2023-01-20T02:09:09.322Z,95125.31
2023-01-20T02:10:11.782Z,95125.31
2023-01-20T02:11:13.457Z,95129.28
2023-01-20T02:12:17.658Z,95117.53
2023-01-20T02:13:19.208Z,95128.22
2023-01-20T02:14:38.177Z,95125.56
2023-01-20T02:15:52.468Z,95122.13
2023-01-20T02:17:05.520Z,95130.66
2023-01-20T02:18:22.492Z,95128.28
2023-01-20T02:20:01.527Z,95130.44
2023-01-20T02:21:03.114Z,95126.97
2023-01-20T02:22:17.676Z,95118.66
2023-01-20T02:23:37.755Z,95129.66
2023-01-20T02:24:42.204Z,95124.31
2023-01-20T02:26:05.538Z,95126.72
2023-01-20T02:27:25.423Z,95113.06
2023-01-20T02:29:03.099Z,95132.88
2023-01-20T02:30:21.603Z,95125.91
2023-01-20T02:31:25.955Z,95122.69
2023-01-20T02:32:33.376Z,95123.78
2023-01-20T02:33:45.929Z,95115.72
2023-01-20T02:34:59.155Z,95118.94
2023-01-20T02:36:11.712Z,95124.50
2023-01-20T02:37:23.947Z,95124.53
2023-01-20T02:38:33.008Z,95121.03
2023-01-20T02:39:48.870Z,95112.72
2023-01-20T02:40:50.431Z,95121.25
2023-01-20T02:42:12.903Z,95117.50
2023-01-20T02:43:14.379Z,95120.72
2023-01-20T02:44:34.339Z,95118.78
2023-01-20T02:45:43.044Z,95115.34
2023-01-20T02:47:02.791Z,95120.66
2023-01-20T02:48:16.050Z,95115.63
2023-01-20T02:49:28.339Z,95123.03
2023-01-20T02:50:40.702Z,95117.19
2023-01-20T02:52:00.172Z,95122.53
2023-01-20T02:53:03.339Z,95118.31
2023-01-20T02:54:10.848Z,95126.06
2023-01-20T02:55:21.305Z,95124.53
2023-01-20T02:56:25.638Z,95120.53
2023-01-20T02:57:33.564Z,95123.25
2023-01-20T02:58:40.873Z,95133.16
2023-01-20T02:59:44.557Z,95132.09
2023-01-20T03:00:55.065Z,95135.31
2023-01-20T03:02:04.817Z,95139.56
2023-01-20T03:03:10.602Z,95138.22
2023-01-20T03:04:14.062Z,95137.44
2023-01-20T03:05:21.484Z,95142.03
2023-01-20T03:06:25.702Z,95144.44
2023-01-20T03:07:28.669Z,95145.25
2023-01-20T03:08:31.976Z,95139.88
2023-01-20T03:09:38.084Z,95141.47
2023-01-20T03:10:41.880Z,95139.34
2023-01-20T03:11:47.608Z,95149.50
2023-01-20T03:12:57.333Z,95139.59
2023-01-20T03:14:05.248Z,95142.81
2023-01-20T03:15:07.513Z,95142.81
2023-01-20T03:16:14.796Z,95155.63
2023-01-20T03:17:16.436Z,95146.28
2023-01-20T03:18:18.062Z,95150.84
2023-01-20T03:19:20.689Z,95153.81
2023-01-20T03:20:22.449Z,95154.59
2023-01-20T03:21:24.454Z,95161.84
2023-01-20T03:22:26.063Z,95169.63
2023-01-20T03:23:28.537Z,95162.13
2023-01-20T03:24:32.836Z,95158.91
2023-01-20T03:25:34.500Z,95165.59
2023-01-20T03:26:36.179Z,95164.81
2023-01-20T03:27:37.870Z,95169.63
2023-01-20T03:28:41.513Z,95171.75
2023-01-20T03:29:43.031Z,95180.88
2023-01-20T03:30:44.610Z,95177.16
2023-01-20T03:31:49.228Z,95163.50
2023-01-20T03:32:51.791Z,95172.31
2023-01-20T03:33:55.675Z,95171.53
2023-01-20T03:34:57.632Z,95183.31
2023-01-20T03:35:59.283Z,95176.59
2023-01-20T03:37:01.560Z,95174.19
2023-01-20T03:38:03.241Z,95178.47
2023-01-20T03:39:04.852Z,95173.09
2023-01-20T03:40:07.209Z,95174.97
2023-01-20T03:41:17.199Z,95181.66
2023-01-20T03:42:32.261Z,95185.09
2023-01-20T03:43:43.354Z,95183.50
2023-01-20T03:45:06.926Z,95194.53
2023-01-20T03:46:18.593Z,95183.28
2023-01-20T03:47:29.091Z,95197.75
2023-01-20T03:49:17.046Z,95196.72
2023-01-20T03:50:28.798Z,95194.28
2023-01-20T03:51:36.564Z,95192.69
2023-01-20T03:52:54.084Z,95200.47
2023-01-20T03:54:02.459Z,95202.59
2023-01-20T03:55:10.603Z,95199.63
2023-01-20T03:56:20.176Z,95192.69
2023-01-20T03:57:25.194Z,95195.63
2023-01-20T03:58:35.469Z,95197.22
2023-01-20T03:59:38.824Z,95193.47
2023-01-20T04:00:43.301Z,95196.13
2023-01-20T04:01:45.558Z,95200.66
2023-01-20T04:02:47.377Z,95195.59
2023-01-20T04:03:51.309Z,95198.28
2023-01-20T04:04:53.505Z,95194.81
2023-01-20T04:05:55.861Z,95203.09
2023-01-20T04:06:57.605Z,95201.22
2023-01-20T04:08:03.764Z,95199.66
2023-01-20T04:09:08.853Z,95204.22
2023-01-20T04:10:12.304Z,95199.63
2023-01-20T04:11:14.023Z,95206.06
2023-01-20T04:12:15.621Z,95210.13
2023-01-20T04:13:17.345Z,95206.63
2023-01-20T04:14:19.012Z,95208.78
2023-01-20T04:15:21.858Z,95211.44
2023-01-20T04:16:24.835Z,95211.44
2023-01-20T04:17:29.460Z,95215.75
2023-01-20T04:18:31.089Z,95221.34
2023-01-20T04:19:32.673Z,95224.03
2023-01-20T04:20:34.226Z,95220.28
2023-01-20T04:21:42.250Z,95221.91
2023-01-20T04:22:53.932Z,95228.34
2023-01-20T04:24:16.820Z,95225.66
2023-01-20T04:25:26.935Z,95228.88
2023-01-20T04:26:28.599Z,95221.34
2023-01-20T04:27:30.208Z,95232.06
2023-01-20T04:28:32.314Z,95228.06
2023-01-20T04:29:33.952Z,95232.06
2023-01-20T04:30:35.539Z,95235.56
2023-01-20T04:31:37.545Z,95224.03
2023-01-20T04:32:39.223Z,95236.91
2023-01-20T04:33:41.421Z,95233.69
2023-01-20T04:34:43.070Z,95235.56
2023-01-20T04:35:44.568Z,95239.56
2023-01-20T04:36:46.196Z,95235.00
2023-01-20T04:37:47.845Z,95243.84
2023-01-20T04:38:49.439Z,95232.31
2023-01-20T04:39:51.028Z,95236.34
2023-01-20T04:40:52.719Z,95226.16
2023-01-20T04:41:54.388Z,95240.63
2023-01-20T04:42:56.032Z,95237.44
2023-01-20T04:43:57.614Z,95243.28
2023-01-20T04:44:59.305Z,95245.19
2023-01-20T04:46:00.934Z,95245.72
2023-01-20T04:47:02.439Z,95249.47
2023-01-20T04:48:07.967Z,95250.25
2023-01-20T04:49:11.027Z,95250.28
2023-01-20T04:50:13.861Z,95255.66
2023-01-20T04:51:15.469Z,95252.19
2023-01-20T04:52:17.553Z,95248.97
2023-01-20T04:53:19.359Z,95249.75
2023-01-20T04:54:21.225Z,95258.09
2023-01-20T04:55:22.863Z,95256.72
2023-01-20T04:56:24.578Z,95254.31
2023-01-20T04:57:26.199Z,95261.56
2023-01-20T04:58:27.837Z,95257.28
2023-01-20T04:59:29.504Z,95252.72
2023-01-20T05:00:31.308Z,95261.81
2023-01-20T05:01:32.940Z,95259.16
2023-01-20T05:02:34.615Z,95251.59
2023-01-20T05:03:36.469Z,95257.78
2023-01-20T05:04:38.145Z,95266.41
2023-01-20T05:05:40.084Z,95261.53
2023-01-20T05:06:43.395Z,95268.50
2023-01-20T05:07:45.288Z,95260.47
2023-01-20T05:08:46.955Z,95263.44
2023-01-20T05:09:48.542Z,95269.88
2023-01-20T05:10:50.254Z,95274.97
2023-01-20T05:11:51.870Z,95267.19
2023-01-20T05:12:53.500Z,95279.81
2023-01-20T05:13:55.080Z,95281.97
2023-01-20T05:14:56.706Z,95283.28
2023-01-20T05:15:58.498Z,95286.47
2023-01-20T05:17:00.328Z,95295.34
2023-01-20T05:18:01.953Z,95284.63
2023-01-20T05:19:03.541Z,95279.28
2023-01-20T05:20:05.461Z,95289.72
2023-01-20T05:21:11.232Z,95286.78
2023-01-20T05:22:12.866Z,95288.38
2023-01-20T05:23:14.635Z,95285.41
2023-01-20T05:24:16.253Z,95287.59
2023-01-20T05:25:17.863Z,95295.59
2023-01-20T05:26:19.443Z,95288.91
2023-01-20T05:27:20.983Z,95298.03
2023-01-20T05:28:22.590Z,95310.66
2023-01-20T05:29:24.213Z,95293.47
2023-01-20T05:30:25.814Z,95298.84
2023-01-20T05:31:27.411Z,95302.56
2023-01-20T05:32:29.061Z,95303.41
2023-01-20T05:33:30.643Z,95303.41
2023-01-20T05:34:32.240Z,95297.75
2023-01-20T05:35:33.894Z,95303.41
2023-01-20T05:36:35.610Z,95308.22
2023-01-20T05:37:37.226Z,95305.25
2023-01-20T05:38:38.902Z,95305.56
2023-01-20T05:39:40.490Z,95316.53
2023-01-20T05:40:42.059Z,95311.72
2023-01-20T05:41:44.367Z,95314.13
2023-01-20T05:42:45.994Z,95315.22
2023-01-20T05:43:47.510Z,95320.81
2023-01-20T05:44:49.172Z,95313.03
2023-01-20T05:45:50.685Z,95321.63
2023-01-20T05:46:52.230Z,95327.50
2023-01-20T05:47:58.070Z,95325.38
2023-01-20T05:48:59.617Z,95329.94
2023-01-20T05:50:01.273Z,95331.28
2023-01-20T05:51:03.029Z,95339.31
2023-01-20T05:52:04.862Z,95331.00
2023-01-20T05:53:06.471Z,95329.91
2023-01-20T05:54:08.045Z,95329.06
2023-01-20T05:55:09.869Z,95334.72
2023-01-20T05:56:15.924Z,95335.25
2023-01-20T05:57:18.334Z,95332.84
2023-01-20T05:58:19.957Z,95322.91
2023-01-20T05:59:23.309Z,95332.81
2023-01-20T06:00:25.017Z,95330.91
2023-01-20T06:01:26.671Z,95341.91
2023-01-20T06:02:30.953Z,95338.94
2023-01-20T06:03:32.681Z,95344.06
2023-01-20T06:04:34.470Z,95341.63
2023-01-20T06:05:36.146Z,95343.03
2023-01-20T06:06:38.058Z,95340.59
2023-01-20T06:07:39.756Z,95347.25
2023-01-20T06:08:41.923Z,95349.69
2023-01-20T06:09:43.572Z,95346.75
2023-01-20T06:10:45.228Z,95349.72
2023-01-20T06:11:46.856Z,95347.84
2023-01-20T06:12:53.128Z,95355.59
2023-01-20T06:13:54.796Z,95351.88
2023-01-20T06:14:56.414Z,95351.88
2023-01-20T06:15:58.121Z,95343.78
2023-01-20T06:16:59.819Z,95353.72
2023-01-20T06:18:01.418Z,95350.50
2023-01-20T06:19:03.112Z,95351.09
2023-01-20T06:20:06.292Z,95350.28
2023-01-20T06:21:07.926Z,95344.09
2023-01-20T06:22:13.946Z,95352.19
2023-01-20T06:23:15.771Z,95347.34
2023-01-20T06:24:17.331Z,95355.38
2023-01-20T06:25:18.949Z,95351.59
2023-01-20T06:26:20.620Z,95356.44
2023-01-20T06:27:22.246Z,95352.69
2023-01-20T06:28:23.879Z,95350.56
2023-01-20T06:29:25.524Z,95353.22
2023-01-20T06:30:27.137Z,95354.53
2023-01-20T06:31:28.830Z,95356.66
2023-01-20T06:32:30.540Z,95343.53
2023-01-20T06:33:33.051Z,95350.75
2023-01-20T06:34:34.659Z,95357.44
2023-01-20T06:35:37.281Z,95355.28
2023-01-20T06:36:38.858Z,95360.38
2023-01-20T06:37:40.482Z,95363.84
2023-01-20T06:38:42.149Z,95360.59
2023-01-20T06:39:43.811Z,95352.25
2023-01-20T06:40:45.382Z,95358.97
2023-01-20T06:41:47.077Z,95364.34
2023-01-20T06:42:48.698Z,95365.09
2023-01-20T06:43:51.275Z,95371.56
2023-01-20T06:44:52.946Z,95369.19
2023-01-20T06:45:59.142Z,95362.69
2023-01-20T06:47:00.747Z,95366.47
2023-01-20T06:48:02.355Z,95369.44
2023-01-20T06:49:04.069Z,95368.38
2023-01-20T06:50:06.233Z,95376.16
2023-01-20T06:51:11.867Z,95371.31
2023-01-20T06:52:13.515Z,95371.81
2023-01-20T06:53:15.099Z,95365.41
2023-01-20T06:54:16.895Z,95379.59
2023-01-20T06:55:18.405Z,95381.47
2023-01-20T06:56:20.266Z,95377.44
2023-01-20T06:57:21.833Z,95378.03
2023-01-20T06:58:28.512Z,95383.63
2023-01-20T06:59:30.084Z,95383.09
2023-01-20T07:00:31.674Z,95380.16
2023-01-20T07:01:34.186Z,95379.84
2023-01-20T07:02:35.901Z,95391.66
2023-01-20T07:03:37.815Z,95388.22
2023-01-20T07:04:39.684Z,95395.16
2023-01-20T07:05:41.245Z,95390.66
2023-01-20T07:06:42.924Z,95379.69
2023-01-20T07:07:45.833Z,95385.25
2023-01-20T07:08:47.455Z,95396.22
2023-01-20T07:09:49.091Z,95395.47
2023-01-20T07:10:53.628Z,95398.41
2023-01-20T07:11:55.218Z,95398.69
2023-01-20T07:12:56.829Z,95401.84
2023-01-20T07:13:58.549Z,95405.31
2023-01-20T07:15:00.133Z,95409.06
2023-01-20T07:16:01.856Z,95401.78
2023-01-20T07:17:03.486Z,95415.16
2023-01-20T07:18:05.114Z,95410.94
2023-01-20T07:19:06.823Z,95409.81
2023-01-20T07:20:09.272Z,95414.91
2023-01-20T07:21:12.054Z,95421.56
2023-01-20T07:22:13.577Z,95427.13
2023-01-20T07:23:15.321Z,95425.50
2023-01-20T07:24:17.892Z,95420.63
2023-01-20T07:25:19.546Z,95420.00
2023-01-20T07:26:23.177Z,95425.09
2023-01-20T07:27:24.763Z,95434.19
2023-01-20T07:28:26.731Z,95442.78
2023-01-20T07:29:28.359Z,95443.28
2023-01-20T07:30:30.116Z,95441.06
2023-01-20T07:31:31.876Z,95434.41
2023-01-20T07:32:33.514Z,95443.03
2023-01-20T07:33:35.771Z,95441.41
2023-01-20T07:34:37.451Z,95443.03
2023-01-20T07:35:39.048Z,95446.03
2023-01-20T07:36:40.663Z,95435.38
2023-01-20T07:37:42.269Z,95447.66
2023-01-20T07:38:47.225Z,95453.56
2023-01-20T07:39:48.817Z,95442.84
2023-01-20T07:40:50.498Z,95446.03
2023-01-20T07:41:52.116Z,95445.06
2023-01-20T07:42:54.920Z,95447.22
2023-01-20T07:43:56.502Z,95450.72
2023-01-20T07:44:58.173Z,95441.00
2023-01-20T07:46:01.615Z,95451.19
2023-01-20T07:47:03.344Z,95442.63
2023-01-20T07:48:06.879Z,95449.84
2023-01-20T07:49:10.667Z,95456.00
2023-01-20T07:50:13.807Z,95462.53
2023-01-20T07:51:16.489Z,95448.59
2023-01-20T07:52:18.079Z,95453.47
2023-01-20T07:53:19.687Z,95455.91
2023-01-20T07:54:21.342Z,95459.63
2023-01-20T07:55:24.998Z,95462.38
2023-01-20T07:56:28.093Z,95460.75
2023-01-20T07:57:30.257Z,95466.28
2023-01-20T07:58:32.290Z,95469.47
2023-01-20T07:59:33.892Z,95471.44
2023-01-20T08:00:35.479Z,95465.22
2023-01-20T08:01:37.180Z,95469.78
2023-01-20T08:02:39.027Z,95460.19
2023-01-20T08:03:41.163Z,95459.63
2023-01-20T08:04:42.985Z,95468.78
2023-01-20T08:05:44.732Z,95460.19
2023-01-20T08:06:46.335Z,95475.88
2023-01-20T08:07:52.301Z,95468.16
2023-01-20T08:08:54.723Z,95470.31
2023-01-20T08:09:57.078Z,95466.84
2023-01-20T08:10:59.575Z,95484.03
2023-01-20T08:12:02.209Z,95475.75
2023-01-20T08:13:03.688Z,95472.50
2023-01-20T08:14:05.357Z,95487.53
2023-01-20T08:15:07.792Z,95485.13
2023-01-20T08:16:12.842Z,95484.56
2023-01-20T08:17:14.483Z,95475.09
2023-01-20T08:18:16.272Z,95490.41
2023-01-20T08:19:17.861Z,95481.03
2023-01-20T08:20:19.776Z,95480.50
2023-01-20T08:21:29.265Z,95486.59
2023-01-20T08:22:30.883Z,95488.53
2023-01-20T08:23:33.656Z,95499.56
2023-01-20T08:24:35.205Z,95494.69
2023-01-20T08:25:36.871Z,95500.41
2023-01-20T08:26:38.472Z,95499.84
2023-01-20T08:27:40.048Z,95498.25
2023-01-20T08:28:42.343Z,95500.41
2023-01-20T08:29:44.160Z,95510.38
2023-01-20T08:30:45.802Z,95504.75
2023-01-20T08:31:47.587Z,95503.72
2023-01-20T08:32:49.418Z,95510.91
2023-01-20T08:33:54.948Z,95514.38
2023-01-20T08:34:56.573Z,95512.19
2023-01-20T08:36:07.370Z,95515.69
2023-01-20T08:37:08.998Z,95510.63
2023-01-20T08:38:10.593Z,95515.63
2023-01-20T08:39:14.604Z,95521.78
2023-01-20T08:40:17.628Z,95509.19
2023-01-20T08:41:27.859Z,95518.88
2023-01-20T08:42:29.862Z,95511.66
2023-01-20T08:43:31.465Z,95521.00
2023-01-20T08:44:33.171Z,95526.69
2023-01-20T08:45:34.790Z,95530.19
2023-01-20T08:46:41.385Z,95527.47
2023-01-20T08:47:45.901Z,95531.25
2023-01-20T08:48:48.815Z,95526.97
2023-01-20T08:49:52.938Z,95522.16
2023-01-20T08:50:54.537Z,95526.09
2023-01-20T08:51:56.334Z,95536.63
2023-01-20T08:52:57.969Z,95533.69
2023-01-20T08:53:59.861Z,95538.13
2023-01-20T08:55:01.561Z,95528.28
2023-01-20T08:56:03.873Z,95541.16
2023-01-20T08:57:05.544Z,95538.25
2023-01-20T08:58:07.121Z,95539.25
2023-01-20T08:59:08.708Z,95534.44
2023-01-20T09:00:11.256Z,95541.44
2023-01-20T09:01:16.966Z,95536.53
2023-01-20T09:02:21.037Z,95533.75
2023-01-20T09:03:22.817Z,95529.47
2023-01-20T09:04:24.401Z,95540.25
2023-01-20T09:05:27.180Z,95541.84
2023-01-20T09:06:28.771Z,95547.47
2023-01-20T09:07:30.359Z,95543.50
2023-01-20T09:08:32.319Z,95543.00
2023-01-20T09:09:34.007Z,95545.88
2023-01-20T09:10:36.097Z,95541.25
2023-01-20T09:11:39.437Z,95534.78
2023-01-20T09:12:41.186Z,95539.88
2023-01-20T09:13:42.808Z,95551.66
2023-01-20T09:14:44.404Z,95542.03
2023-01-20T09:15:52.014Z,95557.63
2023-01-20T09:16:53.792Z,95552.88
2023-01-20T09:17:55.497Z,95559.19
2023-01-20T09:18:57.038Z,95554.97
2023-01-20T09:19:58.663Z,95561.75
2023-01-20T09:21:02.005Z,95557.22
2023-01-20T09:22:04.017Z,95560.72
2023-01-20T09:23:05.818Z,95561.06
2023-01-20T09:24:07.770Z,95557.31
2023-01-20T09:25:10.101Z,95559.13
2023-01-20T09:26:12.388Z,95552.38
2023-01-20T09:27:14.900Z,95551.19
2023-01-20T09:28:16.556Z,95564.50
2023-01-20T09:29:20.651Z,95564.91
2023-01-20T09:30:22.357Z,95551.22
2023-01-20T09:31:24.067Z,95560.94
2023-01-20T09:32:25.721Z,95557.72
2023-01-20T09:33:27.504Z,95551.31
2023-01-20T09:34:29.489Z,95552.63
2023-01-20T09:35:31.222Z,95574.44
2023-01-20T09:36:32.843Z,95571.75
2023-01-20T09:37:52.897Z,95572.31
2023-01-20T09:39:13.252Z,95578.75
2023-01-20T09:40:37.548Z,95574.72
2023-01-20T09:41:58.385Z,95576.66
2023-01-20T09:43:21.535Z,95577.97
2023-01-20T09:44:35.132Z,95583.09
2023-01-20T09:45:40.198Z,95577.72
2023-01-20T09:47:10.296Z,95584.19
2023-01-20T09:48:35.149Z,95583.34
2023-01-20T09:50:02.441Z,95584.16
2023-01-20T09:51:27.281Z,95576.06
2023-01-20T09:52:55.488Z,95583.06
2023-01-20T09:54:04.020Z,95592.50
2023-01-20T09:55:12.999Z,95585.25
2023-01-20T09:56:17.652Z,95581.22
2023-01-20T09:57:21.636Z,95595.47
2023-01-20T09:58:37.012Z,95591.69
2023-01-20T09:59:52.574Z,95581.22
2023-01-20T10:01:07.257Z,95588.16
2023-01-20T10:02:17.209Z,95588.97
2023-01-20T10:03:24.822Z,95589.72
2023-01-20T10:04:37.116Z,95590.03
2023-01-20T10:05:39.816Z,95585.16
2023-01-20T10:06:44.012Z,95577.09
2023-01-20T10:07:56.235Z,95591.09
2023-01-20T10:09:06.489Z,95582.50
2023-01-20T10:10:17.395Z,95588.94
2023-01-20T10:11:20.328Z,95590.84
2023-01-20T10:12:34.284Z,95586.81
2023-01-20T10:13:47.395Z,95589.00
2023-01-20T10:15:12.630Z,95588.19
2023-01-20T10:16:23.761Z,95588.47
2023-01-20T10:17:30.925Z,95592.75
2023-01-20T10:18:56.578Z,95590.09
2023-01-20T10:20:17.585Z,95587.38
2023-01-20T10:21:31.476Z,95594.13
2023-01-20T10:22:41.076Z,95592.22
2023-01-20T10:23:48.246Z,95590.63
2023-01-20T10:24:55.579Z,95593.59
2023-01-20T10:26:20.030Z,95592.75
2023-01-20T10:27:25.185Z,95594.09
2023-01-20T10:28:28.952Z,95590.88
2023-01-20T10:29:55.838Z,95592.75
2023-01-20T10:30:58.773Z,95591.41
2023-01-20T10:32:02.860Z,95597.06
2023-01-20T10:33:10.964Z,95597.84
2023-01-20T10:34:19.409Z,95594.91
2023-01-20T10:35:24.406Z,95592.50
2023-01-20T10:36:29.882Z,95593.03
2023-01-20T10:37:32.149Z,95587.38
2023-01-20T10:38:46.650Z,95585.00
2023-01-20T10:40:10.343Z,95588.47
2023-01-20T10:41:22.482Z,95599.22
2023-01-20T10:42:26.036Z,95583.88
2023-01-20T10:43:28.061Z,95591.66
2023-01-20T10:44:33.238Z,95595.94
2023-01-20T10:46:00.261Z,95597.03
2023-01-20T10:47:29.877Z,95592.75
2023-01-20T10:48:46.676Z,95591.66
2023-01-20T10:49:52.886Z,95597.59
2023-01-20T10:51:00.055Z,95595.47
2023-01-20T10:52:15.197Z,95597.63
2023-01-20T10:53:58.246Z,95588.75
2023-01-20T10:55:10.344Z,95592.50
2023-01-20T10:56:36.014Z,95591.69
2023-01-20T10:57:38.525Z,95594.91
2023-01-20T10:58:43.512Z,95589.53
2023-01-20T10:59:48.233Z,95596.78
2023-01-20T11:00:50.203Z,95593.03
2023-01-20T11:01:59.394Z,95592.50
2023-01-20T11:03:14.675Z,95602.44
2023-01-20T11:04:19.268Z,95600.28
2023-01-20T11:05:30.758Z,95602.72
2023-01-20T11:06:33.036Z,95605.34
2023-01-20T11:07:34.661Z,95588.41
2023-01-20T11:08:36.313Z,95608.31
2023-01-20T11:09:37.907Z,95601.88
2023-01-20T11:10:40.150Z,95602.41
2023-01-20T11:11:41.829Z,95608.34
2023-01-20T11:12:44.913Z,95592.22
2023-01-20T11:13:46.577Z,95600.81
2023-01-20T11:14:48.705Z,95594.09
2023-01-20T11:15:59.300Z,95599.75
2023-01-20T11:17:05.634Z,95598.94
2023-01-20T11:18:15.995Z,95603.50
2023-01-20T11:19:17.634Z,95597.59
2023-01-20T11:20:20.809Z,95593.53
2023-01-20T11:21:24.618Z,95593.53
2023-01-20T11:22:30.336Z,95605.66
2023-01-20T11:23:35.803Z,95601.38
2023-01-20T11:24:44.003Z,95599.75
2023-01-20T11:25:55.206Z,95586.28
2023-01-20T11:27:05.825Z,95592.22
2023-01-20T11:28:16.942Z,95592.22
2023-01-20T11:29:19.077Z,95597.59
2023-01-20T11:30:27.769Z,95598.13
2023-01-20T11:31:48.504Z,95595.44
2023-01-20T11:33:22.534Z,95604.06
2023-01-20T11:34:29.904Z,95601.09
2023-01-20T11:35:31.513Z,95598.13
2023-01-20T11:36:33.077Z,95605.66
2023-01-20T11:37:37.563Z,95594.09
2023-01-20T11:38:50.162Z,95598.66
2023-01-20T11:39:51.650Z,95600.03
2023-01-20T11:40:54.216Z,95584.97
2023-01-20T11:42:41.452Z,95598.41
2023-01-20T11:43:43.115Z,95597.88
2023-01-20T11:44:47.792Z,95599.47
2023-01-20T11:45:49.442Z,95589.00
2023-01-20T11:46:51.131Z,95595.44
2023-01-20T11:48:19.939Z,95595.19
2023-01-20T11:49:22.474Z,95593.84
2023-01-20T11:50:38.915Z,95602.69
2023-01-20T11:51:48.855Z,95591.69
2023-01-20T11:52:50.508Z,95580.94
2023-01-20T11:54:07.094Z,95589.00
2023-01-20T11:55:25.391Z,95594.13
2023-01-20T11:56:27.122Z,95598.41
2023-01-20T11:57:28.700Z,95601.63
2023-01-20T11:58:34.684Z,95598.41
2023-01-20T11:59:37.288Z,95604.31
2023-01-20T12:00:42.197Z,95600.81
2023-01-20T12:01:58.326Z,95591.13
2023-01-20T12:03:22.770Z,95608.31
2023-01-20T12:04:36.352Z,95601.59
2023-01-20T12:05:44.780Z,95604.56
2023-01-20T12:07:03.668Z,95607.25
2023-01-20T12:08:10.722Z,95603.22
2023-01-20T12:09:16.928Z,95607.53
2023-01-20T12:10:28.073Z,95611.81
2023-01-20T12:11:53.584Z,95607.53
2023-01-20T12:13:01.218Z,95607.81
2023-01-20T12:14:25.622Z,95609.97
2023-01-20T12:15:33.352Z,95611.81
2023-01-20T12:16:36.159Z,95610.75
2023-01-20T12:17:52.974Z,95614.72
2023-01-20T12:19:02.213Z,95611.50
2023-01-20T12:20:10.168Z,95615.84
2023-01-20T12:21:18.216Z,95610.19
2023-01-20T12:22:33.176Z,95615.28
2023-01-20T12:24:06.821Z,95614.22
2023-01-20T12:25:34.519Z,95613.97
2023-01-20T12:26:36.486Z,95613.13
2023-01-20T12:27:45.390Z,95613.94
2023-01-20T12:29:05.669Z,95616.34
2023-01-20T12:30:17.160Z,95621.47
2023-01-20T12:31:20.545Z,95615.03
2023-01-20T12:32:22.229Z,95609.91
2023-01-20T12:33:32.799Z,95612.31
2023-01-20T12:34:35.375Z,95613.94
2023-01-20T12:35:41.955Z,95614.72
2023-01-20T12:36:46.489Z,95622.03
2023-01-20T12:37:55.746Z,95615.06
2023-01-20T12:39:17.638Z,95618.03
2023-01-20T12:40:40.820Z,95620.72
2023-01-20T12:41:53.658Z,95624.47
2023-01-20T12:43:33.404Z,95617.50
2023-01-20T12:44:57.432Z,95618.56
2023-01-20T12:46:14.058Z,95635.50
2023-01-20T12:47:27.848Z,95623.41
2023-01-20T12:48:42.732Z,95629.31